Time;durP1;ratioP1;P1;durP2;ratioP2;P2;SDS_P1;SDS_P2;PMS_P1;PMS_P2;Temp;Humidity;BMP_temperature;BMP_pressure;BME280_temperature;BME280_humidity;BME280_pressure;Samples;Min_cycle;Max_cycle;Signal;HPM_P1;HPM_P2
2023/02/13 00:00:56;;;;;;;16.80;11.53;;;;;;;3.45;86.73;100678.78;5065587;27;102714;-72
2023/02/13 00:03:25;;;;;;;15.07;11.13;;;;;;;3.36;85.61;100678.06;5058099;27;102645;-72
2023/02/13 00:05:53;;;;;;;15.30;11.03;;;;;;;3.22;84.68;100675.63;5073024;27;103233;-72
2023/02/13 00:08:21;;;;;;;16.10;12.10;;;;;;;2.90;84.24;100673.34;5072343;27;103203;-72
2023/02/13 00:10:49;;;;;;;14.13;10.80;;;;;;;2.70;85.05;100669.19;5070442;27;102723;-72
2023/02/13 00:13:17;;;;;;;14.77;10.53;;;;;;;3.07;85.64;100675.78;5061938;27;104137;-72
2023/02/13 00:15:44;;;;;;;12.03;8.93;;;;;;;3.12;85.20;100679.19;5069540;27;103472;-72
2023/02/13 00:18:14;;;;;;;12.07;8.53;;;;;;;3.30;84.80;100680.75;5067185;27;103173;-72
2023/02/13 00:20:41;;;;;;;12.67;9.03;;;;;;;3.38;83.74;100676.28;5063967;27;102714;-72
2023/02/13 00:23:11;;;;;;;12.53;9.50;;;;;;;3.21;83.37;100673.00;5058958;27;104098;-71
2023/02/13 00:25:40;;;;;;;14.90;10.37;;;;;;;3.04;83.38;100667.09;5037695;27;102985;-72
2023/02/13 00:28:08;;;;;;;12.93;10.27;;;;;;;2.99;83.88;100674.13;5050393;27;104297;-72
2023/02/13 00:30:35;;;;;;;12.87;9.37;;;;;;;3.04;83.91;100672.31;5063029;27;102810;-73
2023/02/13 00:33:03;;;;;;;12.97;9.77;;;;;;;3.07;83.58;100670.56;5042654;27;102784;-72
2023/02/13 00:35:32;;;;;;;10.90;8.90;;;;;;;2.89;83.77;100666.38;5040663;27;104581;-72
2023/02/13 00:38:00;;;;;;;11.67;9.27;;;;;;;3.06;83.61;100673.19;5044161;27;104287;-73
2023/02/13 00:40:28;;;;;;;14.33;10.40;;;;;;;3.01;82.96;100669.75;5039578;27;102802;-73
2023/02/13 00:42:56;;;;;;;11.97;9.70;;;;;;;3.03;82.77;100668.00;5036784;27;102866;-72
2023/02/13 00:45:24;;;;;;;16.53;11.57;;;;;;;2.69;83.28;100673.56;5036876;27;105219;-72
2023/02/13 00:47:52;;;;;;;15.80;10.10;;;;;;;2.46;86.05;100675.53;5043688;27;103354;-71
2023/02/13 00:50:20;;;;;;;15.23;10.90;;;;;;;2.47;85.36;100669.41;5041653;27;103648;-72
2023/02/13 00:52:49;;;;;;;11.73;8.07;;;;;;;2.83;86.03;100663.88;5038601;27;102998;-73
2023/02/13 00:55:19;;;;;;;10.70;8.50;;;;;;;3.05;85.49;100667.09;5039205;27;103338;-72
2023/02/13 00:57:49;;;;;;;9.30;7.90;;;;;;;2.99;84.53;100661.06;5054889;27;103321;-72
2023/02/13 01:00:17;;;;;;;11.20;7.90;;;;;;;3.07;83.36;100660.09;5061711;27;102791;-72
2023/02/13 01:02:46;;;;;;;13.60;10.07;;;;;;;3.09;83.02;100674.00;5057764;27;102886;-72
2023/02/13 01:05:14;;;;;;;14.10;10.73;;;;;;;2.62;82.23;100660.56;5037861;27;104235;-71
2023/02/13 01:07:42;;;;;;;12.93;9.33;;;;;;;2.83;83.44;100661.25;5053249;27;103256;-72
2023/02/13 01:10:11;;;;;;;15.10;9.70;;;;;;;2.87;82.76;100656.84;5038132;27;102922;-72
2023/02/13 01:12:39;;;;;;;16.87;12.30;;;;;;;2.65;82.96;100664.03;5042220;27;104402;-72
2023/02/13 01:15:08;;;;;;;14.10;9.77;;;;;;;2.54;85.07;100663.25;5068506;27;103955;-72
2023/02/13 01:17:38;;;;;;;14.63;10.63;;;;;;;2.43;85.83;100659.00;5044278;27;103226;-72
2023/02/13 01:20:07;;;;;;;11.83;9.60;;;;;;;2.76;85.62;100663.91;5041224;27;102809;-71
2023/02/13 01:22:37;;;;;;;15.50;9.50;;;;;;;2.83;84.21;100663.00;5042749;27;103812;-71
2023/02/13 01:25:06;;;;;;;13.03;10.37;;;;;;;2.88;83.69;100664.69;5041742;27;103044;-72
2023/02/13 01:27:36;;;;;;;15.13;11.43;;;;;;;2.98;83.55;100664.56;5050721;27;104349;-71
2023/02/13 01:30:09;;;;;;;15.73;10.43;;;;;;;2.96;82.95;100655.88;5069113;27;104513;-72
2023/02/13 01:32:37;;;;;;;17.40;10.77;;;;;;;2.96;83.03;100658.50;5063238;27;102702;-73
2023/02/13 01:35:05;;;;;;;18.33;12.93;;;;;;;2.17;84.90;100656.63;5042727;27;104101;-73
2023/02/13 01:37:33;;;;;;;18.17;11.63;;;;;;;2.66;85.26;100657.06;5042056;27;103204;-72
2023/02/13 01:40:01;;;;;;;20.03;13.80;;;;;;;1.82;87.93;100658.63;5054893;27;104115;-72
2023/02/13 01:42:33;;;;;;;19.67;11.20;;;;;;;2.03;88.98;100659.31;5063638;27;102681;-72
2023/02/13 01:45:05;;;;;;;18.37;13.00;;;;;;;1.90;89.62;100667.25;5073891;27;104061;-72
2023/02/13 01:47:40;;;;;;;16.53;11.20;;;;;;;2.41;88.94;100661.66;5066414;27;103278;-72
2023/02/13 01:50:11;;;;;;;20.33;12.63;;;;;;;2.44;88.00;100655.53;5068252;27;102699;-72
2023/02/13 01:52:44;;;;;;;13.50;9.93;;;;;;;2.48;85.21;100657.22;5058392;27;104227;-73
2023/02/13 01:55:13;;;;;;;12.40;9.10;;;;;;;2.62;85.09;100651.00;5043421;27;103293;-72
2023/02/13 01:57:44;;;;;;;16.13;11.13;;;;;;;2.42;83.44;100650.31;5035309;27;106235;-72
2023/02/13 02:00:15;;;;;;;16.60;11.03;;;;;;;2.52;84.47;100649.38;5059389;27;102711;-72
2023/02/13 02:02:51;;;;;;;17.73;12.17;;;;;;;2.55;82.89;100644.13;5055683;27;102608;-72
2023/02/13 02:05:27;;;;;;;13.23;10.00;;;;;;;2.66;83.35;100651.84;5055930;27;105142;-72
2023/02/13 02:07:59;;;;;;;18.80;12.53;;;;;;;2.11;82.66;100656.66;5063797;27;104523;-72
2023/02/13 02:10:31;;;;;;;16.30;10.03;;;;;;;2.21;85.09;100666.16;5067144;27;102814;-73
2023/02/13 02:13:04;;;;;;;13.93;10.47;;;;;;;2.50;84.82;100653.72;5059197;27;104504;-72
2023/02/13 02:15:35;;;;;;;17.10;12.23;;;;;;;2.31;83.12;100649.53;5066498;27;104912;-71
2023/02/13 02:18:03;;;;;;;14.67;10.90;;;;;;;2.37;84.49;100653.84;5059718;27;104107;-73
2023/02/13 02:20:57;;;;;;;12.83;9.47;;;;;;;2.57;84.18;100652.81;5065043;27;102774;-73
2023/02/13 02:23:54;;;;;;;13.90;9.20;;;;;;;2.59;83.14;100651.03;5060095;27;104092;-73
2023/02/13 02:26:56;;;;;;;15.63;11.53;;;;;;;2.48;81.53;100655.47;5062991;27;103260;-72
2023/02/13 02:29:54;;;;;;;13.53;9.47;;;;;;;2.57;82.07;100650.19;5058189;27;103225;-72
2023/02/13 02:32:44;;;;;;;10.40;8.23;;;;;;;2.61;81.14;100658.88;5057003;27;103169;-73
2023/02/13 02:35:23;;;;;;;12.93;10.13;;;;;;;2.56;80.42;100645.84;5041214;27;104049;-72
2023/02/13 02:38:24;;;;;;;12.17;8.83;;;;;;;2.56;81.01;100645.84;5047339;27;103789;-72
2023/02/13 02:41:02;;;;;;;11.73;9.27;;;;;;;2.60;80.78;100647.56;5031371;27;103632;-73
2023/02/13 02:43:51;;;;;;;10.87;9.00;;;;;;;2.54;80.14;100642.38;5053053;27;103044;-72
2023/02/13 02:46:27;;;;;;;12.83;9.03;;;;;;;2.50;80.53;100639.84;5049521;27;104257;-72
2023/02/13 02:51:58;;;;;;;13.93;9.20;;;;;;;2.50;81.45;100643.28;5040227;27;103006;-72
2023/02/13 02:57:24;;;;;;;13.13;9.67;;;;;;;2.43;82.02;100644.22;5047813;27;104021;-72
2023/02/13 03:13:50;;;;;;;11.70;8.73;;;;;;;2.29;81.96;100653.91;5045834;27;103846;-72
2023/02/13 03:22:22;;;;;;;11.13;8.50;;;;;;;2.36;82.01;100647.75;5059121;27;103691;-73
2023/02/13 03:25:03;;;;;;;10.90;8.23;;;;;;;2.39;81.11;100652.13;5042705;27;103003;-73
2023/02/13 03:30:34;;;;;;;11.30;7.80;;;;;;;2.41;81.09;100661.66;5069447;27;104355;-72
2023/02/13 03:33:18;;;;;;;12.40;8.10;;;;;;;2.43;81.49;100659.88;5061121;27;103703;-73
2023/02/13 03:38:48;;;;;;;13.53;10.40;;;;;;;2.31;80.95;100652.16;5050038;27;103320;-72
2023/02/13 03:41:23;;;;;;;14.63;10.57;;;;;;;2.03;81.64;100653.25;5042324;27;106677;-73
2023/02/13 03:44:04;;;;;;;16.87;10.70;;;;;;;1.99;81.68;100657.63;5035273;27;104590;-73
2023/02/13 03:46:36;;;;;;;14.77;10.77;;;;;;;1.79;83.42;100669.06;5040322;27;103206;-73
2023/02/13 03:51:57;;;;;;;15.13;10.27;;;;;;;2.03;83.67;100672.38;5045642;27;102751;-72
2023/02/13 04:00:11;;;;;;;16.30;11.30;;;;;;;1.74;83.68;100679.53;5058621;27;102688;-73
2023/02/13 04:02:52;;;;;;;16.43;10.97;;;;;;;1.59;84.29;100683.06;5055901;27;102868;-73
2023/02/13 04:05:23;;;;;;;14.27;9.73;;;;;;;1.77;84.34;100688.16;5055967;27;103890;-73
2023/02/13 04:07:51;;;;;;;14.70;11.27;;;;;;;1.64;83.96;100691.72;5059255;27;103273;-72
2023/02/13 04:10:23;;;;;;;15.27;9.17;;;;;;;1.81;83.93;100688.16;5062236;27;102703;-72
2023/02/13 04:13:00;;;;;;;11.27;8.17;;;;;;;1.95;83.79;100696.75;5063978;27;103929;-72
2023/02/13 04:15:36;;;;;;;12.40;8.90;;;;;;;2.05;83.10;100688.00;5057641;27;103449;-71
2023/02/13 04:18:09;;;;;;;14.10;9.53;;;;;;;2.04;82.27;100691.50;5054879;27;103643;-71
2023/02/13 04:20:38;;;;;;;11.73;8.57;;;;;;;2.06;81.96;100687.13;5032947;27;103480;-72
2023/02/13 04:23:08;;;;;;;15.43;9.77;;;;;;;2.05;81.24;100688.84;5037894;27;104232;-71
2023/02/13 04:25:40;;;;;;;13.67;9.30;;;;;;;2.03;80.87;100689.75;5035097;27;104508;-72
2023/02/13 04:28:08;;;;;;;14.50;10.33;;;;;;;1.94;80.46;100695.88;5041212;27;103211;-72
2023/02/13 04:30:38;;;;;;;15.67;10.37;;;;;;;1.50;80.93;100688.31;5038343;27;102688;-72
2023/02/13 04:33:06;;;;;;;15.53;11.07;;;;;;;1.28;82.66;100697.09;5045078;27;103647;-72
2023/02/13 04:35:35;;;;;;;15.07;9.23;;;;;;;1.53;83.36;100693.50;5034235;27;105190;-71
2023/02/13 04:38:03;;;;;;;14.53;9.77;;;;;;;1.60;82.48;100696.97;5027841;27;103216;-71
2023/02/13 04:40:30;;;;;;;15.20;9.50;;;;;;;1.69;82.15;100702.09;5019829;27;104305;-71
2023/02/13 04:43:00;;;;;;;14.17;9.80;;;;;;;1.60;81.54;100696.97;5022694;27;104934;-72
2023/02/13 04:45:27;;;;;;;12.00;8.53;;;;;;;1.67;82.00;100696.91;5024882;27;103789;-71
2023/02/13 04:47:57;;;;;;;12.27;9.60;;;;;;;1.50;81.63;100700.47;5026124;27;103378;-72
2023/02/13 04:50:25;;;;;;;14.33;9.67;;;;;;;1.53;81.90;100703.94;5029822;27;102836;-71
2023/02/13 04:52:57;;;;;;;12.30;8.77;;;;;;;1.66;81.69;100694.31;5028339;27;104471;-71
2023/02/13 04:55:27;;;;;;;11.67;8.70;;;;;;;1.67;81.60;100701.25;5021070;27;103295;-71
2023/02/13 04:57:56;;;;;;;11.87;9.07;;;;;;;1.71;81.17;100703.81;5018676;27;103647;-71
2023/02/13 05:00:26;;;;;;;10.30;7.63;;;;;;;1.74;80.76;100708.19;5035150;27;102672;-71
2023/02/13 05:03:01;;;;;;;10.13;6.63;;;;;;;1.80;80.73;100712.50;5039463;27;104092;-71
2023/02/13 05:05:28;;;;;;;13.07;8.30;;;;;;;1.83;80.55;100715.06;5030139;27;103233;-72
2023/02/13 05:07:59;;;;;;;14.93;10.70;;;;;;;1.74;79.40;100703.81;5016537;27;103334;-72
2023/02/13 05:10:27;;;;;;;14.57;10.37;;;;;;;0.84;83.07;100711.97;5015395;27;103049;-73
2023/02/13 05:12:55;;;;;;;12.50;9.47;;;;;;;1.22;82.56;100702.31;5019401;27;104081;-71
2023/02/13 05:15:25;;;;;;;16.23;10.63;;;;;;;1.24;81.96;100708.38;5017980;27;103243;-71
2023/02/13 05:17:53;;;;;;;16.73;9.93;;;;;;;1.38;81.98;100697.91;5023474;27;103213;-73
2023/02/13 05:20:21;;;;;;;12.60;9.17;;;;;;;1.48;81.52;100705.69;5021683;27;104053;-72
2023/02/13 05:25:42;;;;;;;14.60;9.57;;;;;;;1.33;81.55;100704.88;5029757;27;103302;-72
2023/02/13 05:30:54;;;;;;;14.60;9.90;;;;;;;1.35;81.85;100704.00;5035554;27;103244;-72
2023/02/13 05:33:22;;;;;;;12.00;8.03;;;;;;;1.45;81.45;100705.72;5038201;27;103018;-71
2023/02/13 05:35:50;;;;;;;11.10;8.03;;;;;;;1.52;81.00;100710.00;5040319;27;104179;-71
2023/02/13 05:38:20;;;;;;;17.10;11.20;;;;;;;1.04;80.42;100711.03;5017461;27;104359;-71
2023/02/13 05:40:48;;;;;;;14.00;10.23;;;;;;;1.00;81.73;100718.84;5019761;27;102725;-72
2023/02/13 05:43:16;;;;;;;20.43;12.10;;;;;;;0.75;82.54;100710.22;5016458;27;103776;-72
2023/02/13 05:45:44;;;;;;;16.33;10.70;;;;;;;1.06;83.24;100711.03;5013330;27;104567;-70
2023/02/13 05:48:13;;;;;;;16.93;10.53;;;;;;;1.14;82.51;100704.06;5011661;27;104375;-71
2023/02/13 05:50:40;;;;;;;17.00;11.63;;;;;;;0.71;83.53;100707.63;5022667;27;102839;-71
2023/02/13 05:53:10;;;;;;;16.03;11.13;;;;;;;0.81;84.27;100704.16;5029916;27;103315;-72
2023/02/13 05:55:39;;;;;;;15.47;10.97;;;;;;;0.96;84.21;100706.69;5031821;27;103863;-71
2023/02/13 05:58:08;;;;;;;16.67;10.60;;;;;;;1.07;83.28;100707.53;5034210;27;103247;-70
2023/02/13 06:00:36;;;;;;;16.10;12.30;;;;;;;1.22;82.83;100710.13;5034561;27;102646;-71
2023/02/13 06:03:04;;;;;;;18.20;12.10;;;;;;;1.30;82.24;100700.53;5034641;27;104111;-71
2023/02/13 06:05:33;;;;;;;16.93;11.33;;;;;;;1.08;81.43;100697.16;5041759;27;105916;-70
2023/02/13 06:08:01;;;;;;;20.60;13.73;;;;;;;1.00;81.65;100703.25;5047653;27;103223;-71
2023/02/13 06:10:29;;;;;;;17.63;11.80;;;;;;;1.08;82.00;100696.28;5005795;27;103859;-71
2023/02/13 06:12:57;;;;;;;16.87;12.27;;;;;;;1.06;81.29;100704.09;5040419;27;102925;-72
2023/02/13 06:15:25;;;;;;;22.60;13.20;;;;;;;0.49;82.71;100702.44;5045488;27;104009;-73
2023/02/13 06:17:52;;;;;;;17.90;13.03;;;;;;;0.03;86.10;100710.22;5051148;27;102698;-71
2023/02/13 06:20:20;;;;;;;16.33;11.70;;;;;;;0.20;86.63;100704.16;5038024;27;102712;-71
2023/02/13 06:22:51;;;;;;;14.90;10.93;;;;;;;0.48;86.40;100705.91;5044075;27;104051;-71
2023/02/13 06:25:19;;;;;;;15.77;10.13;;;;;;;0.90;86.04;100709.34;5040765;27;104310;-70
2023/02/13 06:27:48;;;;;;;19.90;12.03;;;;;;;0.93;84.06;100704.97;5036757;27;102670;-70
2023/02/13 06:30:19;;;;;;;20.07;13.27;;;;;;;0.63;83.43;100715.44;5052246;27;103012;-69
2023/02/13 06:32:47;;;;;;;21.13;12.67;;;;;;;0.56;85.09;100711.97;5048012;27;103171;-69
2023/02/13 06:35:16;;;;;;;19.00;11.33;;;;;;;0.92;84.92;100710.19;5047225;27;103376;-69
2023/02/13 06:37:44;;;;;;;20.30;13.30;;;;;;;0.82;83.30;100713.66;5045593;27;103145;-71
2023/02/13 06:40:14;;;;;;;20.17;12.73;;;;;;;0.72;83.74;100719.75;5041875;27;102830;-69
2023/02/13 06:42:43;;;;;;;17.73;11.40;;;;;;;0.88;83.88;100721.47;5041623;27;103805;-74
2023/02/13 06:45:11;;;;;;;14.13;9.37;;;;;;;1.03;83.89;100713.66;5040336;27;103324;-69
2023/02/13 06:47:41;;;;;;;19.47;12.10;;;;;;;0.73;84.00;100716.31;5042642;27;104026;-73
2023/02/13 06:50:10;;;;;;;17.87;12.60;;;;;;;0.54;85.23;100715.44;5040455;27;102703;-69
2023/02/13 06:52:38;;;;;;;19.13;11.93;;;;;;;0.66;86.72;100719.75;5049920;27;102962;-69
2023/02/13 06:55:06;;;;;;;17.60;11.17;;;;;;;0.55;87.58;100723.25;5045171;27;103339;-69
2023/02/13 06:57:35;;;;;;;16.93;11.33;;;;;;;0.51;88.87;100716.31;5034673;27;103145;-70
2023/02/13 07:00:06;;;;;;;16.97;11.93;;;;;;;0.59;87.89;100719.75;5044521;27;103607;-73
2023/02/13 07:02:34;;;;;;;17.23;11.83;;;;;;;0.62;87.54;100718.06;5048603;27;102732;-73
2023/02/13 07:05:02;;;;;;;19.53;12.80;;;;;;;0.47;88.54;100725.00;5048695;27;103706;-69
2023/02/13 07:07:33;;;;;;;19.03;12.57;;;;;;;0.19;90.27;100722.38;5042505;27;103122;-70
2023/02/13 07:10:00;;;;;;;21.23;13.43;;;;;;;0.38;90.85;100722.38;5043837;27;102759;-68
2023/02/13 07:12:28;;;;;;;21.53;13.07;;;;;;;0.69;89.55;100730.19;5043181;27;103957;-69
2023/02/13 07:14:57;;;;;;;20.07;13.23;;;;;;;0.74;88.81;100725.81;5041320;27;102986;-69
2023/02/13 07:17:26;;;;;;;18.83;12.50;;;;;;;0.86;88.92;100725.81;5055705;27;103176;-69
2023/02/13 07:19:54;;;;;;;20.73;12.93;;;;;;;0.77;88.38;100733.63;5046397;27;103105;-69
2023/02/13 07:22:22;;;;;;;21.80;13.17;;;;;;;0.50;90.01;100727.59;5050476;27;104105;-69
2023/02/13 07:24:50;;;;;;;20.07;13.40;;;;;;;0.72;90.32;100735.38;5044839;27;103407;-68
2023/02/13 07:27:17;;;;;;;20.10;13.20;;;;;;;0.73;90.32;100739.72;5044332;27;103255;-69
2023/02/13 07:29:45;;;;;;;20.33;12.73;;;;;;;0.58;91.41;100738.88;5041047;27;103207;-69
2023/02/13 07:32:14;;;;;;;18.53;12.60;;;;;;;0.82;92.03;100742.28;5047683;27;102681;-69
2023/02/13 07:34:42;;;;;;;21.70;14.10;;;;;;;0.89;90.66;100736.22;5039533;27;103321;-69
2023/02/13 07:37:27;;;;;;;21.67;14.30;;;;;;;1.22;90.36;100738.75;5042639;27;103258;-69
2023/02/13 07:39:58;;;;;;;21.40;14.37;;;;;;;1.45;87.80;100742.19;5043176;27;102878;-70
2023/02/13 07:42:25;;;;;;;20.60;13.27;;;;;;;1.60;87.84;100736.06;5043675;27;104182;-69
2023/02/13 07:44:53;;;;;;;21.30;13.37;;;;;;;1.94;88.67;100740.19;5045180;27;104287;-69
2023/02/13 07:47:22;;;;;;;20.33;13.70;;;;;;;2.72;86.51;100732.72;5042982;27;103388;-70
2023/02/13 07:49:50;;;;;;;21.37;12.80;;;;;;;3.17;84.22;100734.03;5048186;27;102684;-69
2023/02/13 07:52:18;;;;;;;23.83;14.93;;;;;;;3.55;81.80;100729.22;5043156;27;103581;-70
2023/02/13 07:54:47;;;;;;;20.63;14.23;;;;;;;3.89;79.26;100725.31;5044835;27;104278;-70
2023/02/13 07:57:15;;;;;;;22.43;15.13;;;;;;;3.98;77.73;100727.81;5029733;27;103913;-69
2023/02/13 07:59:43;;;;;;;21.97;14.77;;;;;;;4.14;77.91;100728.44;5024812;27;102801;-69
2023/02/13 08:02:12;;;;;;;25.77;14.83;;;;;;;4.25;79.56;100725.66;5034704;27;104081;-69
2023/02/13 08:04:44;;;;;;;18.77;12.77;;;;;;;4.57;78.12;100731.28;5036867;27;104134;-69
2023/02/13 08:07:12;;;;;;;20.27;13.03;;;;;;;5.11;78.79;100732.06;5027556;27;103324;-68
2023/02/13 08:12:28;;;;;;;22.27;14.67;;;;;;;5.62;74.34;100724.94;5049566;27;102773;-69
2023/02/13 08:14:55;;;;;;;23.53;15.00;;;;;;;5.94;73.86;100719.06;5033522;27;103547;-69
2023/02/13 08:17:23;;;;;;;21.70;13.67;;;;;;;6.18;74.35;100722.00;5036079;27;103374;-69
2023/02/13 08:19:53;;;;;;;17.40;12.57;;;;;;;6.17;73.07;100720.31;5039673;27;103077;-69
2023/02/13 08:22:21;;;;;;;19.70;11.70;;;;;;;6.28;73.63;100726.16;5035352;27;103997;-69
2023/02/13 08:24:49;;;;;;;23.10;11.87;;;;;;;6.58;72.17;100721.94;5031480;27;103344;-69
2023/02/13 08:27:17;;;;;;;23.67;13.83;;;;;;;6.42;71.24;100715.34;5033148;27;103854;-69
2023/02/13 08:29:44;;;;;;;22.37;13.67;;;;;;;6.67;71.36;100720.84;5030607;27;102639;-69
2023/02/13 08:32:12;;;;;;;19.70;12.87;;;;;;;6.84;70.89;100718.66;5018321;27;102842;-74
2023/02/13 08:34:40;;;;;;;22.73;12.00;;;;;;;7.03;70.54;100712.03;5037455;27;104977;-71
2023/02/13 08:37:10;;;;;;;18.77;12.63;;;;;;;7.14;69.68;100711.72;5039074;27;103192;-70
2023/02/13 08:39:38;;;;;;;18.83;13.20;;;;;;;6.89;69.70;100716.78;5035963;27;102691;-67
2023/02/13 08:42:06;;;;;;;17.63;12.87;;;;;;;7.11;71.68;100711.81;5027926;27;103933;-69
2023/02/13 08:44:34;;;;;;;18.53;13.17;;;;;;;7.57;69.80;100707.91;5028672;27;103933;-69
2023/02/13 08:47:02;;;;;;;19.03;12.83;;;;;;;7.91;68.86;100707.78;5030381;27;103162;-69
2023/02/13 08:49:30;;;;;;;20.00;14.13;;;;;;;8.08;67.76;100702.00;5045244;27;102770;-68
2023/02/13 08:51:59;;;;;;;19.10;13.63;;;;;;;8.95;66.61;100695.66;5025027;27;104508;-67
2023/02/13 08:54:29;;;;;;;19.27;13.93;;;;;;;9.71;66.61;100693.72;5045888;27;103996;-66
2023/02/13 08:56:57;;;;;;;17.60;13.10;;;;;;;9.49;63.81;100684.06;5032301;27;103194;-68
2023/02/13 08:59:25;;;;;;;18.90;13.93;;;;;;;9.74;62.16;100696.25;5038213;27;102969;-68
2023/02/13 09:01:53;;;;;;;18.23;12.80;;;;;;;8.97;66.91;100692.94;5030269;27;102685;-68
2023/02/13 09:04:21;;;;;;;17.93;13.53;;;;;;;8.94;64.90;100695.69;5031480;27;104064;-68
2023/02/13 09:06:51;;;;;;;15.30;11.70;;;;;;;8.96;66.87;100701.75;5032299;27;103239;-68
2023/02/13 09:09:19;;;;;;;15.57;11.90;;;;;;;9.24;64.47;100702.50;5033537;27;102657;-68
2023/02/13 09:11:50;;;;;;;16.63;12.43;;;;;;;9.94;61.76;100694.66;5034722;27;102765;-68
2023/02/13 09:14:18;;;;;;;17.23;13.67;;;;;;;8.91;64.69;100698.41;5030628;27;103297;-67
2023/02/13 09:16:45;;;;;;;17.27;12.03;;;;;;;9.00;67.16;100706.03;5040467;27;103236;-68
2023/02/13 09:19:13;;;;;;;17.20;13.27;;;;;;;9.21;62.70;100697.34;5042589;27;102688;-67
2023/02/13 09:21:41;;;;;;;17.53;13.27;;;;;;;8.99;65.83;100693.75;5037894;27;103964;-67
2023/02/13 09:24:09;;;;;;;18.73;12.67;;;;;;;9.27;63.32;100691.84;5041702;27;103267;-67
2023/02/13 09:26:37;;;;;;;15.33;12.73;;;;;;;9.48;64.39;100695.50;5037779;27;104075;-67
2023/02/13 09:29:06;;;;;;;17.00;12.07;;;;;;;9.55;63.50;100686.44;5028286;27;102692;-67
2023/02/13 09:31:34;;;;;;;14.93;11.40;;;;;;;9.15;66.01;100692.31;5031192;27;103858;-68
2023/02/13 09:34:02;;;;;;;15.57;11.50;;;;;;;9.23;66.20;100692.91;5029905;27;103257;-67
2023/02/13 09:36:30;;;;;;;13.57;11.47;;;;;;;9.44;64.35;100702.66;5035305;27;103176;-68
2023/02/13 09:38:58;;;;;;;15.63;11.47;;;;;;;9.51;62.92;100696.28;5042760;27;103018;-67
2023/02/13 09:41:29;;;;;;;15.40;11.97;;;;;;;9.63;64.10;100695.78;5037160;27;104017;-67
2023/02/13 09:44:01;;;;;;;14.47;11.60;;;;;;;9.63;63.06;100695.78;5048739;27;103262;-67
2023/02/13 09:46:34;;;;;;;12.87;10.63;;;;;;;8.93;64.77;100701.84;5038404;27;103190;-67
2023/02/13 09:49:07;;;;;;;14.93;11.73;;;;;;;8.69;67.16;100712.34;5043635;27;102719;-67
2023/02/13 09:51:35;;;;;;;13.13;11.00;;;;;;;8.64;64.63;100711.63;5041334;27;104444;-67
2023/02/13 09:54:05;;;;;;;13.30;10.37;;;;;;;8.16;68.73;100713.16;5040482;27;103304;-68
2023/02/13 09:56:45;;;;;;;15.53;9.80;;;;;;;9.40;64.46;100700.22;5036287;27;103475;-68
2023/02/13 09:59:29;;;;;;;13.47;10.30;;;;;;;9.05;63.45;100696.16;5046251;27;102726;-67
2023/02/13 10:02:02;;;;;;;13.83;9.80;;;;;;;9.48;64.10;100691.09;5046668;27;104051;-67
2023/02/13 10:04:42;;;;;;;13.20;10.50;;;;;;;9.61;63.09;100702.91;5045444;27;103358;-67
2023/02/13 10:07:22;;;;;;;11.10;9.93;;;;;;;10.00;60.95;100694.41;5032053;27;103243;-67
2023/02/13 10:10:01;;;;;;;12.40;9.63;;;;;;;10.08;61.37;100693.19;5054088;27;102669;-67
2023/02/13 10:12:46;;;;;;;12.07;9.97;;;;;;;9.46;60.45;100708.75;5036388;27;104173;-68
2023/02/13 10:15:22;;;;;;;13.17;10.40;;;;;;;8.46;65.06;100709.56;5048455;27;103388;-67
2023/02/13 10:17:57;;;;;;;12.30;10.53;;;;;;;9.15;64.13;100702.88;5039795;27;103387;-67
2023/02/13 10:20:32;;;;;;;11.23;9.73;;;;;;;9.46;62.79;100698.19;5034415;27;102741;-68
2023/02/13 10:23:08;;;;;;;13.13;9.37;;;;;;;10.15;61.59;100693.84;5042340;27;103532;-68
2023/02/13 10:25:46;;;;;;;13.43;9.93;;;;;;;9.44;62.33;100696.53;5035725;27;103865;-68
2023/02/13 10:28:26;;;;;;;10.57;9.07;;;;;;;9.75;61.86;100689.19;5039076;27;102997;-68
2023/02/13 10:30:58;;;;;;;12.93;10.20;;;;;;;9.54;62.47;100696.16;5050409;27;103388;-67
2023/02/13 10:33:33;;;;;;;12.80;9.27;;;;;;;9.85;61.53;100696.72;5039870;27;104470;-68
2023/02/13 10:36:05;;;;;;;13.10;9.63;;;;;;;9.63;62.58;100689.66;5034440;27;103293;-68
2023/02/13 10:38:34;;;;;;;11.50;8.63;;;;;;;10.06;62.00;100680.97;5043582;27;103409;-67
2023/02/13 10:41:22;;;;;;;13.37;8.87;;;;;;;10.36;60.21;100687.69;5036616;27;103045;-67
2023/02/13 10:44:06;;;;;;;9.63;8.63;;;;;;;10.60;59.12;100680.56;5043157;27;104188;-67
2023/02/13 10:46:42;;;;;;;10.30;9.20;;;;;;;10.35;59.47;100681.59;5043585;27;104218;-68
2023/02/13 10:49:26;;;;;;;11.93;9.37;;;;;;;10.85;58.07;100674.19;5036207;27;103239;-68
2023/02/13 10:52:05;;;;;;;9.50;7.60;;;;;;;11.21;57.47;100669.09;5039864;27;102741;-68
2023/02/13 10:54:52;;;;;;;9.73;8.47;;;;;;;11.05;57.72;100663.63;5038881;27;104085;-68
2023/02/13 10:57:26;;;;;;;10.73;9.00;;;;;;;10.67;57.54;100671.44;5047418;27;104081;-68
2023/02/13 11:00:05;;;;;;;12.77;8.03;;;;;;;10.97;58.01;100659.59;5037288;27;103211;-68
2023/02/13 11:02:35;;;;;;;11.20;8.40;;;;;;;11.31;56.63;100658.97;5041659;27;103122;-67
2023/02/13 11:05:15;;;;;;;9.77;8.60;;;;;;;11.25;56.35;100656.59;5032985;27;102770;-68
2023/02/13 11:07:45;;;;;;;9.20;8.20;;;;;;;10.74;56.58;100657.94;5040427;27;103314;-68
2023/02/13 11:10:16;;;;;;;9.53;8.30;;;;;;;10.76;57.00;100650.78;5038434;27;103342;-67
2023/02/13 11:12:45;;;;;;;8.50;7.30;;;;;;;11.57;56.62;100645.41;5049846;27;102673;-67
2023/02/13 11:15:26;;;;;;;10.40;7.90;;;;;;;11.78;54.40;100649.75;5037415;27;103685;-67
2023/02/13 11:17:55;;;;;;;9.90;8.67;;;;;;;11.87;54.45;100644.03;5032111;27;104102;-68
2023/02/13 11:20:31;;;;;;;8.63;6.27;;;;;;;11.97;54.41;100650.59;5041022;27;103264;-68
2023/02/13 11:23:18;;;;;;;8.63;7.73;;;;;;;11.71;54.27;100648.31;5043703;27;102826;-68
2023/02/13 11:25:57;;;;;;;12.83;8.13;;;;;;;11.78;54.49;100643.59;5048057;27;102859;-68
2023/02/13 11:28:27;;;;;;;8.63;7.83;;;;;;;11.65;53.76;100644.13;5044209;27;103318;-68
2023/02/13 11:31:12;;;;;;;8.33;7.50;;;;;;;11.95;53.48;100647.19;5044331;27;103176;-68
2023/02/13 11:33:40;;;;;;;9.00;7.50;;;;;;;12.34;53.99;100643.53;5040871;27;102786;-68
2023/02/13 11:36:14;;;;;;;9.70;8.30;;;;;;;12.57;54.00;100640.59;5037366;27;104295;-68
2023/02/13 11:38:42;;;;;;;7.87;6.70;;;;;;;12.21;54.06;100641.47;5026563;27;103912;-68
2023/02/13 11:41:12;;;;;;;9.27;8.27;;;;;;;12.53;52.55;100642.53;5051810;27;103442;-68
2023/02/13 11:43:47;;;;;;;7.63;6.83;;;;;;;13.15;51.88;100630.53;5047321;27;102753;-68
2023/02/13 11:46:19;;;;;;;8.63;7.60;;;;;;;12.71;52.11;100632.81;5049879;27;102641;-68
2023/02/13 11:49:02;;;;;;;9.17;8.27;;;;;;;11.82;52.55;100629.25;5045306;27;103706;-68
2023/02/13 11:51:43;;;;;;;10.07;8.20;;;;;;;11.95;54.65;100633.94;5044908;27;103044;-68
2023/02/13 11:54:28;;;;;;;11.80;8.00;;;;;;;12.06;52.88;100631.63;5045768;27;102951;-68
2023/02/13 11:56:57;;;;;;;8.73;7.53;;;;;;;12.64;52.99;100623.44;5046545;27;102721;-68
2023/02/13 11:59:40;;;;;;;9.97;8.40;;;;;;;12.51;51.63;100630.31;5038907;27;103317;-68
2023/02/13 12:02:17;;;;;;;9.57;8.57;;;;;;;12.84;51.96;100628.59;5048521;27;103289;-68
2023/02/13 12:04:46;;;;;;;11.03;8.63;;;;;;;13.03;51.58;100626.69;5039074;27;102630;-68
2023/02/13 12:07:20;;;;;;;9.80;8.73;;;;;;;12.39;52.35;100630.91;5040889;27;103122;-68
2023/02/13 12:09:50;;;;;;;10.00;8.77;;;;;;;10.43;56.42;100631.06;5045369;27;103509;-69
2023/02/13 12:12:25;;;;;;;11.80;8.67;;;;;;;12.55;52.91;100632.72;5024152;27;103254;-68
2023/02/13 12:14:53;;;;;;;10.40;9.00;;;;;;;12.80;52.30;100634.97;5041553;27;102663;-68
2023/02/13 12:17:25;;;;;;;9.97;8.40;;;;;;;13.45;50.57;100630.69;5035740;27;102726;-68
2023/02/13 12:20:00;;;;;;;10.63;9.30;;;;;;;12.32;51.44;100632.16;5052924;27;104087;-68